Time;durP1;ratioP1;P1;durP2;ratioP2;P2;SDS_P1;SDS_P2;PMS_P1;PMS_P2;Temp;Humidity;BMP_temperature;BMP_pressure;BME280_temperature;BME280_humidity;BME280_pressure;Samples;Min_cycle;Max_cycle;Signal;HPM_P1;HPM_P2
2021/12/29 00:00:25;;;;;;;13.70;4.20;;;13.40;75.10;;;-142.21;100.00;112049.66;5133462;27;20836;-75
2021/12/29 00:02:55;;;;;;;16.53;4.67;;;13.40;75.00;;;-142.21;100.00;112049.66;5118371;27;20528;-76
2021/12/29 00:05:24;;;;;;;14.50;4.30;;;13.50;74.80;;;-142.21;100.00;112049.66;5113167;28;20474;-75
2021/12/29 00:07:52;;;;;;;11.43;3.60;;;13.50;74.60;;;-142.21;100.00;112049.66;5104406;28;20993;-76
2021/12/29 00:10:20;;;;;;;11.97;3.80;;;13.50;74.70;;;-142.21;100.00;112049.66;5106779;27;20498;-78
2021/12/29 00:12:51;;;;;;;11.13;3.73;;;13.40;74.70;;;-142.21;100.00;112049.66;5096405;28;20485;-75
2021/12/29 00:15:21;;;;;;;13.23;3.93;;;13.40;74.80;;;-142.21;100.00;112049.66;5121679;27;20436;-77
2021/12/29 00:17:50;;;;;;;16.00;3.97;;;13.50;75.00;;;-142.21;100.00;112049.66;5100488;28;20513;-76
2021/12/29 00:20:27;;;;;;;14.23;4.20;;;13.40;74.90;;;-142.21;100.00;112049.66;5121936;27;20445;-76
2021/12/29 00:22:56;;;;;;;11.63;3.63;;;13.40;75.20;;;-142.21;100.00;112049.66;5096572;28;20453;-75
2021/12/29 00:25:23;;;;;;;9.50;3.33;;;13.40;75.20;;;-142.21;100.00;112049.66;5100173;27;20953;-77
2021/12/29 00:27:52;;;;;;;13.23;3.87;;;13.30;75.10;;;-142.21;100.00;112049.66;5100972;27;20449;-76
2021/12/29 00:30:20;;;;;;;12.40;3.77;;;13.30;75.40;;;-142.21;100.00;112049.66;5107002;27;20474;-75
2021/12/29 00:32:47;;;;;;;9.03;3.47;;;13.30;75.40;;;-142.21;100.00;112049.66;5118311;27;20484;-76
2021/12/29 00:35:15;;;;;;;9.80;3.50;;;13.40;75.30;;;-142.21;100.00;112049.66;5132404;27;20445;-77
2021/12/29 00:37:44;;;;;;;11.50;3.53;;;13.40;75.30;;;-142.21;100.00;112049.66;5109357;27;20478;-76
2021/12/29 00:40:13;;;;;;;11.60;3.60;;;13.40;75.20;;;-142.21;100.00;112049.66;5112846;28;20520;-75
2021/12/29 00:42:41;;;;;;;10.70;3.53;;;13.50;75.50;;;-142.21;100.00;112049.66;5109422;28;20446;-76
2021/12/29 00:45:10;;;;;;;9.50;3.50;;;13.50;75.10;;;-142.21;100.00;112049.66;5114808;28;20473;-75
2021/12/29 00:47:38;;;;;;;11.50;3.83;;;13.50;75.30;;;-142.21;100.00;112049.66;5114908;28;20521;-77
2021/12/29 00:50:12;;;;;;;11.67;3.43;;;13.50;75.00;;;-142.21;100.00;112049.66;5114700;28;21141;-76
2021/12/29 00:52:40;;;;;;;10.30;4.10;;;13.40;75.20;;;-142.21;100.00;112049.66;5114778;28;20556;-76
2021/12/29 00:55:10;;;;;;;11.03;3.20;;;13.40;75.00;;;-142.21;100.00;112049.66;5114166;28;20499;-75
2021/12/29 00:57:38;;;;;;;8.73;3.20;;;13.40;75.40;;;-142.21;100.00;112049.66;5115140;28;20560;-76
2021/12/29 01:00:06;;;;;;;8.50;3.13;;;13.50;75.00;;;-142.21;100.00;112049.66;5113853;28;20941;-76
2021/12/29 01:02:33;;;;;;;9.77;2.87;;;13.50;75.10;;;-142.21;100.00;112049.66;5114372;28;20524;-76
2021/12/29 01:05:01;;;;;;;7.63;2.97;;;13.40;74.60;;;-142.21;100.00;112049.66;5113608;28;20532;-75
2021/12/29 01:07:28;;;;;;;9.93;3.07;;;13.40;74.80;;;-142.21;100.00;112049.66;5114814;28;20535;-75
2021/12/29 01:09:55;;;;;;;10.03;3.17;;;13.40;74.60;;;-142.21;100.00;112049.66;5112769;28;20507;-76
2021/12/29 01:12:24;;;;;;;9.17;3.03;;;13.40;74.60;;;-142.21;100.00;112049.66;5114023;28;20533;-76
2021/12/29 01:14:54;;;;;;;9.90;3.43;;;13.40;74.50;;;-142.21;100.00;112049.66;5113468;28;21016;-77
2021/12/29 01:17:24;;;;;;;7.97;2.87;;;13.40;74.60;;;-142.21;100.00;112049.66;5114015;28;20445;-77
2021/12/29 01:19:55;;;;;;;8.97;2.93;;;13.40;74.60;;;-142.21;100.00;112049.66;5114787;28;20489;-75
2021/12/29 01:22:23;;;;;;;7.27;3.00;;;13.40;74.70;;;-142.21;100.00;112049.66;5113733;28;20503;-75
2021/12/29 01:24:51;;;;;;;10.00;3.20;;;13.40;74.90;;;-142.21;100.00;112049.66;5113603;28;20470;-75
2021/12/29 01:27:19;;;;;;;9.20;3.17;;;13.40;74.70;;;-142.21;100.00;112049.66;5112708;28;20445;-75
2021/12/29 01:29:47;;;;;;;11.37;3.17;;;13.40;74.90;;;-142.21;100.00;112049.66;5113674;28;21032;-77
2021/12/29 01:32:15;;;;;;;9.40;3.30;;;13.40;74.60;;;-142.21;100.00;112049.66;5113116;28;20540;-76
2021/12/29 01:34:43;;;;;;;8.47;2.90;;;13.40;74.60;;;-142.21;100.00;112049.66;5114134;28;20552;-77
2021/12/29 01:37:10;;;;;;;7.03;2.50;;;13.40;74.50;;;-142.21;100.00;112049.66;5114030;28;20434;-76
2021/12/29 01:39:38;;;;;;;9.70;3.23;;;13.40;74.60;;;-142.21;100.00;112049.66;5092831;28;20961;-76
2021/12/29 01:42:06;;;;;;;8.33;2.90;;;13.30;74.90;;;-142.21;100.00;112049.66;5092966;28;20450;-76
2021/12/29 01:44:34;;;;;;;5.43;2.80;;;13.30;75.10;;;-142.21;100.00;112049.66;5104648;28;20473;-76
2021/12/29 01:47:05;;;;;;;7.50;2.87;;;13.30;74.80;;;-142.21;100.00;112049.66;5092355;28;20553;-76
2021/12/29 01:49:32;;;;;;;7.37;2.40;;;13.30;74.80;;;-142.21;100.00;112049.66;5092621;28;20488;-77
2021/12/29 01:52:03;;;;;;;8.23;2.63;;;13.30;74.70;;;-142.21;100.00;112049.66;5094002;28;20467;-76
2021/12/29 01:54:35;;;;;;;7.43;2.90;;;13.20;74.90;;;-142.21;100.00;112049.66;5099145;28;20462;-76
2021/12/29 01:57:07;;;;;;;8.07;2.70;;;13.30;75.20;;;-142.21;100.00;112049.66;5093307;28;20450;-77
2021/12/29 01:59:35;;;;;;;8.13;2.93;;;13.30;75.30;;;-142.21;100.00;112049.66;5099594;28;20431;-76
2021/12/29 02:02:05;;;;;;;9.60;3.37;;;13.20;75.30;;;-142.21;100.00;112049.66;5105278;28;20442;-77
2021/12/29 02:04:33;;;;;;;7.10;2.53;;;13.30;75.90;;;-142.21;100.00;112049.66;5107392;28;20476;-76
2021/12/29 02:07:00;;;;;;;6.20;2.83;;;13.30;75.70;;;-142.21;100.00;112049.66;5100309;28;20953;-76
2021/12/29 02:09:28;;;;;;;7.77;2.67;;;13.30;75.50;;;-142.21;100.00;112049.66;5095701;28;20964;-76
2021/12/29 02:11:55;;;;;;;7.80;2.70;;;13.30;75.20;;;-142.21;100.00;112049.66;5092421;28;20494;-77
2021/12/29 02:14:23;;;;;;;6.23;2.60;;;13.30;75.00;;;-142.21;100.00;112049.66;5098396;28;20474;-76
2021/12/29 02:16:51;;;;;;;7.83;2.40;;;13.30;75.10;;;-142.21;100.00;112049.66;5102057;28;20453;-76
2021/12/29 02:19:20;;;;;;;7.47;2.73;;;13.30;75.30;;;-142.21;100.00;112049.66;5083984;28;20451;-76
2021/12/29 02:21:56;;;;;;;5.50;2.30;;;13.30;76.00;;;-142.21;100.00;112049.66;5085739;28;20443;-76
2021/12/29 02:24:35;;;;;;;8.37;2.77;;;13.30;75.10;;;-142.21;100.00;112049.66;5098738;28;20776;-75
2021/12/29 02:27:05;;;;;;;7.73;2.70;;;13.20;75.30;;;-142.21;100.00;112049.66;5092129;28;20458;-76
2021/12/29 02:29:34;;;;;;;9.73;2.90;;;13.20;75.60;;;-142.21;100.00;112049.66;5092771;28;20471;-76
2021/12/29 02:32:02;;;;;;;9.40;3.10;;;13.20;75.70;;;-142.21;100.00;112049.66;5091818;28;20450;-77
2021/12/29 02:34:29;;;;;;;6.50;2.47;;;13.20;75.80;;;-142.21;100.00;112049.66;5091820;28;20572;-76
2021/12/29 02:37:01;;;;;;;10.63;3.00;;;13.20;75.80;;;-142.21;100.00;112049.66;5092093;28;20530;-77
2021/12/29 02:39:30;;;;;;;6.13;2.43;;;13.20;75.70;;;-142.21;100.00;112049.66;5110663;28;20576;-77
2021/12/29 02:42:04;;;;;;;6.07;2.60;;;13.20;76.00;;;-142.21;100.00;112049.66;5100660;28;20457;-77
2021/12/29 02:44:38;;;;;;;8.30;2.70;;;13.20;76.20;;;-142.21;100.00;112049.66;5113119;28;20466;-75
2021/12/29 02:47:06;;;;;;;6.03;2.20;;;13.20;76.30;;;-142.21;100.00;112049.66;5112007;28;20505;-76
2021/12/29 02:49:33;;;;;;;7.90;3.00;;;13.20;76.50;;;-142.21;100.00;112049.66;5112139;28;20934;-76
2021/12/29 02:52:02;;;;;;;5.33;2.47;;;13.20;76.50;;;-142.21;100.00;112049.66;5112493;28;20537;-75
2021/12/29 02:54:30;;;;;;;7.47;2.77;;;13.20;76.60;;;-142.21;100.00;112049.66;5111664;28;20538;-76
2021/12/29 02:56:57;;;;;;;6.47;2.60;;;13.30;76.80;;;-142.21;100.00;112049.66;5112326;28;20543;-77
2021/12/29 02:59:25;;;;;;;7.87;3.03;;;13.20;76.10;;;-142.21;100.00;112049.66;5111939;28;20445;-76
2021/12/29 03:01:53;;;;;;;7.33;2.73;;;13.30;77.00;;;-142.21;100.00;112049.66;5112553;28;20533;-75
2021/12/29 03:04:21;;;;;;;10.80;2.60;;;13.20;77.00;;;-142.21;100.00;112049.66;5111852;28;20554;-77
2021/12/29 03:06:49;;;;;;;9.10;2.73;;;13.20;76.90;;;-142.21;100.00;112049.66;5112278;28;20488;-75
2021/12/29 03:09:18;;;;;;;9.13;2.73;;;13.20;77.00;;;-142.21;100.00;112049.66;5112569;28;20528;-76
2021/12/29 03:11:46;;;;;;;10.40;2.87;;;13.30;76.80;;;-142.21;100.00;112049.66;5111649;28;21043;-76
2021/12/29 03:14:15;;;;;;;7.47;2.20;;;13.20;76.70;;;-142.21;100.00;112049.66;5112443;28;20559;-76
2021/12/29 03:16:43;;;;;;;7.00;2.73;;;13.20;76.60;;;-142.21;100.00;112049.66;5112392;28;20453;-75
2021/12/29 03:19:10;;;;;;;6.10;2.47;;;13.20;76.60;;;-142.21;100.00;112049.66;5112112;28;20537;-76
2021/12/29 03:21:38;;;;;;;6.47;2.43;;;13.20;76.40;;;-142.21;100.00;112049.66;5111717;28;20476;-77
2021/12/29 03:24:07;;;;;;;7.50;2.40;;;13.30;76.40;;;-142.21;100.00;112049.66;5112272;28;20993;-76
2021/12/29 03:26:36;;;;;;;7.97;2.80;;;13.30;76.30;;;-142.21;100.00;112049.66;5111910;28;20561;-76
2021/12/29 03:29:04;;;;;;;6.97;2.20;;;13.20;76.10;;;-142.21;100.00;112049.66;5112412;28;20525;-76
2021/12/29 03:31:33;;;;;;;7.43;2.57;;;13.20;76.50;;;-142.21;100.00;112049.66;5111803;28;20434;-76
2021/12/29 03:34:01;;;;;;;7.43;2.37;;;13.10;76.50;;;-142.21;100.00;112049.66;5091778;28;20528;-76
2021/12/29 03:36:29;;;;;;;7.47;2.50;;;13.10;76.60;;;-142.21;100.00;112049.66;5112144;28;20536;-75
2021/12/29 03:38:56;;;;;;;7.43;2.17;;;13.00;76.90;;;-142.21;100.00;112049.66;5111401;28;20479;-76
2021/12/29 03:41:24;;;;;;;8.73;2.30;;;13.00;77.00;;;-142.21;100.00;112049.66;5111847;28;20502;-76
2021/12/29 03:43:53;;;;;;;4.90;1.93;;;13.00;77.00;;;-142.21;100.00;112049.66;5111397;28;20437;-75
2021/12/29 03:46:23;;;;;;;6.60;2.30;;;13.00;77.20;;;-142.21;100.00;112049.66;5112236;28;20493;-76
2021/12/29 03:48:51;;;;;;;6.20;2.00;;;13.10;77.50;;;-142.21;100.00;112049.66;5111314;28;20445;-77
2021/12/29 03:51:18;;;;;;;4.43;1.90;;;13.10;77.50;;;-142.21;100.00;112049.66;5111912;28;20506;-75
2021/12/29 03:53:46;;;;;;;5.07;1.97;;;13.10;77.30;;;-142.21;100.00;112049.66;5112095;28;20481;-75
2021/12/29 03:56:13;;;;;;;3.63;1.93;;;13.10;77.40;;;-142.21;100.00;112049.66;5111719;28;20508;-75
2021/12/29 03:58:44;;;;;;;3.27;1.50;;;13.10;78.30;;;-142.21;100.00;112049.66;5111735;28;20524;-77
2021/12/29 04:01:15;;;;;;;3.03;1.47;;;13.10;77.60;;;-142.21;100.00;112049.66;5113038;28;20734;-76
2021/12/29 04:03:45;;;;;;;3.63;1.70;;;13.10;77.70;;;-142.21;100.00;112049.66;5115646;28;20465;-74
2021/12/29 04:06:13;;;;;;;4.70;1.63;;;13.10;78.20;;;-142.21;100.00;112049.66;5106838;28;20522;-76
2021/12/29 04:08:42;;;;;;;2.93;1.70;;;13.10;77.50;;;-142.21;100.00;112049.66;5115958;28;20839;-76
2021/12/29 04:11:09;;;;;;;3.57;1.70;;;13.10;77.70;;;-142.21;100.00;112049.66;5113737;28;20473;-75
2021/12/29 04:13:36;;;;;;;3.63;1.57;;;13.20;77.20;;;-142.21;100.00;112049.66;5115020;28;20560;-76
2021/12/29 04:16:12;;;;;;;5.40;1.93;;;13.30;77.20;;;-142.21;100.00;112049.66;5117433;28;20494;-76
2021/12/29 04:18:55;;;;;;;4.33;1.87;;;13.20;77.10;;;-142.21;100.00;112049.66;5115775;28;20533;-77
2021/12/29 04:21:23;;;;;;;4.20;1.80;;;13.30;77.10;;;-142.21;100.00;112049.66;5114537;28;20438;-76
2021/12/29 04:23:50;;;;;;;5.73;1.97;;;13.20;77.10;;;-142.21;100.00;112049.66;5117588;28;20468;-76
2021/12/29 04:26:19;;;;;;;4.10;1.53;;;13.30;77.80;;;-142.21;100.00;112049.66;5114866;28;20460;-75
2021/12/29 04:28:47;;;;;;;3.30;1.53;;;13.30;76.90;;;-142.21;100.00;112049.66;5115749;28;20461;-76
2021/12/29 04:31:16;;;;;;;2.97;1.40;;;13.30;76.70;;;-142.21;100.00;112049.66;5115422;28;20442;-76
2021/12/29 04:33:46;;;;;;;3.00;1.47;;;13.30;76.50;;;-142.21;100.00;112049.66;5115530;28;20554;-76
2021/12/29 04:36:13;;;;;;;2.93;1.70;;;13.40;76.50;;;-142.21;100.00;112049.66;5116492;28;20554;-76
2021/12/29 04:38:40;;;;;;;5.13;1.73;;;13.40;76.10;;;-142.21;100.00;112049.66;5113900;28;20560;-75
2021/12/29 04:41:08;;;;;;;3.70;1.63;;;13.40;76.00;;;-142.21;100.00;112049.66;5114829;28;20478;-76
2021/12/29 04:43:35;;;;;;;2.53;1.37;;;13.40;76.30;;;-142.21;100.00;112049.66;5116290;28;20451;-76
2021/12/29 04:46:02;;;;;;;3.03;1.70;;;13.40;76.10;;;-142.21;100.00;112049.66;5114608;28;20481;-75
2021/12/29 04:48:37;;;;;;;4.97;1.60;;;13.30;76.30;;;-142.21;100.00;112049.66;5064900;28;20450;-76
2021/12/29 04:51:14;;;;;;;2.50;1.27;;;13.30;76.40;;;-142.21;100.00;112049.66;5104843;28;20433;-75
2021/12/29 04:53:41;;;;;;;2.67;1.50;;;13.30;76.60;;;-142.21;100.00;112049.66;5114420;28;20438;-75
2021/12/29 04:56:08;;;;;;;2.80;1.50;;;13.30;76.50;;;-142.21;100.00;112049.66;5114584;28;20638;-75
2021/12/29 04:58:35;;;;;;;2.53;1.33;;;13.30;76.80;;;-142.21;100.00;112049.66;5110876;28;20447;-75
2021/12/29 05:01:03;;;;;;;2.47;1.17;;;13.20;77.00;;;-142.21;100.00;112049.66;5103615;28;20925;-75
2021/12/29 05:03:31;;;;;;;3.20;1.37;;;13.30;77.20;;;-142.21;100.00;112049.66;5115096;28;20506;-75
2021/12/29 05:08:24;;;;;;;3.50;1.50;;;13.20;77.20;;;-142.21;100.00;112049.66;5110470;28;20469;-76
2021/12/29 05:08:45;;;;;;;2.77;1.37;;;13.20;77.70;;;-142.21;100.00;112049.66;5095609;28;20430;-75
2021/12/29 05:11:15;;;;;;;3.47;1.30;;;13.20;78.20;;;-142.21;100.00;112049.66;5109325;28;20430;-76
2021/12/29 05:13:45;;;;;;;3.97;1.63;;;13.10;78.80;;;-142.21;100.00;112049.66;5113254;28;20438;-76
2021/12/29 05:16:14;;;;;;;4.27;2.10;;;13.10;79.10;;;-142.21;100.00;112049.66;5112562;28;20450;-76
2021/12/29 05:18:44;;;;;;;4.00;1.90;;;13.10;79.30;;;-142.21;100.00;112049.66;5114325;28;20445;-76
2021/12/29 05:21:12;;;;;;;6.27;1.97;;;13.00;79.50;;;-142.21;100.00;112049.66;5113615;28;20442;-75
2021/12/29 05:23:41;;;;;;;5.20;2.50;;;13.00;80.30;;;-142.21;100.00;112049.66;5114577;28;20455;-75
2021/12/29 05:26:10;;;;;;;6.53;2.50;;;12.90;80.30;;;-142.21;100.00;112049.66;5103267;28;20541;-76
2021/12/29 05:28:37;;;;;;;5.57;2.70;;;12.90;80.40;;;-142.21;100.00;112049.66;5106753;28;20446;-76
2021/12/29 05:31:05;;;;;;;7.10;2.40;;;12.90;80.80;;;-142.21;100.00;112049.66;5112990;28;20541;-76
2021/12/29 05:33:32;;;;;;;6.57;2.40;;;12.90;81.10;;;-142.21;100.00;112049.66;5111881;28;20477;-76
2021/12/29 05:35:59;;;;;;;6.80;2.70;;;13.00;81.00;;;-142.21;100.00;112049.66;5095923;28;20556;-77
2021/12/29 05:38:27;;;;;;;8.17;2.50;;;12.90;81.30;;;-142.21;100.00;112049.66;5113196;28;20481;-76
2021/12/29 05:40:54;;;;;;;7.73;2.80;;;12.90;81.50;;;-142.21;100.00;112049.66;5113312;28;20449;-75
2021/12/29 05:43:22;;;;;;;9.13;3.10;;;12.90;82.20;;;-142.21;100.00;112049.66;5113706;28;20449;-75
2021/12/29 05:45:52;;;;;;;6.57;2.80;;;12.90;82.50;;;-142.21;100.00;112049.66;5113403;28;20521;-76
2021/12/29 05:48:20;;;;;;;9.03;2.63;;;12.90;82.30;;;-142.21;100.00;112049.66;5106262;28;20528;-76
2021/12/29 05:50:47;;;;;;;7.43;2.47;;;12.90;82.40;;;-142.21;100.00;112049.66;5113590;28;20930;-76
2021/12/29 05:53:14;;;;;;;7.83;2.87;;;12.90;82.60;;;-142.21;100.00;112049.66;5114043;28;20805;-76
2021/12/29 05:55:42;;;;;;;6.60;2.60;;;12.90;82.70;;;-142.21;100.00;112049.66;5113243;28;20572;-75
2021/12/29 05:58:10;;;;;;;9.20;2.70;;;12.80;82.80;;;-142.21;100.00;112049.66;5113947;28;20448;-76
2021/12/29 06:00:41;;;;;;;10.53;2.83;;;12.90;83.30;;;-142.21;100.00;112049.66;5112915;28;20438;-76
2021/12/29 06:03:09;;;;;;;8.60;3.37;;;12.90;83.20;;;-142.21;100.00;112049.66;5113359;28;20446;-76
2021/12/29 06:05:38;;;;;;;9.57;2.90;;;12.80;83.50;;;-142.21;100.00;112049.66;5112351;28;20515;-76
2021/12/29 06:08:07;;;;;;;8.13;3.00;;;12.70;83.80;;;-142.21;100.00;112049.66;5112992;28;20445;-75
2021/12/29 06:10:35;;;;;;;8.57;2.90;;;12.70;83.90;;;-142.21;100.00;112049.66;5111810;28;20874;-76
2021/12/29 06:13:02;;;;;;;6.13;2.60;;;12.80;83.50;;;-142.21;100.00;112049.66;5113531;28;20469;-76
2021/12/29 06:15:29;;;;;;;10.53;2.93;;;12.90;83.20;;;-142.21;100.00;112049.66;5112889;28;20509;-76
2021/12/29 06:17:59;;;;;;;9.40;3.00;;;12.90;83.20;;;-142.21;100.00;112049.66;5112936;28;20528;-76
2021/12/29 06:20:26;;;;;;;8.03;2.80;;;12.90;83.00;;;-142.21;100.00;112049.66;5113224;28;20476;-75
2021/12/29 06:22:54;;;;;;;8.87;2.90;;;12.90;82.60;;;-142.21;100.00;112049.66;5112571;28;21001;-75
2021/12/29 06:25:23;;;;;;;10.83;2.77;;;12.90;82.90;;;-142.21;100.00;112049.66;5112075;28;20470;-75
2021/12/29 06:27:51;;;;;;;7.67;2.50;;;12.90;82.80;;;-142.21;100.00;112049.66;5112649;28;20449;-76
2021/12/29 06:30:18;;;;;;;9.00;2.50;;;12.80;82.10;;;-142.21;100.00;112049.66;5112521;28;20452;-76
2021/12/29 06:32:46;;;;;;;8.10;2.63;;;12.70;82.10;;;-142.21;100.00;112049.66;5112639;28;20446;-77
2021/12/29 06:35:15;;;;;;;7.57;2.80;;;12.70;81.90;;;-142.21;100.00;112049.66;5112627;28;20488;-76
2021/12/29 06:37:46;;;;;;;5.37;2.73;;;12.70;82.10;;;-142.21;100.00;112049.66;5111875;28;20465;-75
2021/12/29 06:40:15;;;;;;;9.20;2.67;;;12.80;82.00;;;-142.21;100.00;112049.66;5111315;28;20533;-76
2021/12/29 06:42:42;;;;;;;6.03;2.47;;;12.90;81.60;;;-142.21;100.00;112049.66;5112708;28;20533;-76
2021/12/29 06:45:11;;;;;;;10.13;2.70;;;12.90;81.30;;;-142.21;100.00;112049.66;5111589;28;20473;-75
2021/12/29 06:47:38;;;;;;;5.87;2.60;;;12.90;81.40;;;-142.21;100.00;112049.66;5112470;28;20536;-75
2021/12/29 06:50:07;;;;;;;6.83;2.40;;;12.80;81.50;;;-142.21;100.00;112049.66;5112127;28;20528;-76
2021/12/29 06:52:36;;;;;;;7.73;2.77;;;12.80;81.90;;;-142.21;100.00;112049.66;5112830;28;20488;-76
2021/12/29 06:55:05;;;;;;;9.77;3.00;;;12.80;82.80;;;-142.21;100.00;112049.66;5111484;28;20564;-75
2021/12/29 06:57:32;;;;;;;7.47;2.50;;;12.80;82.20;;;-142.21;100.00;112049.66;5111862;28;20449;-76
2021/12/29 07:00:00;;;;;;;10.57;3.07;;;12.80;82.50;;;-142.21;100.00;112049.66;5112108;28;20445;-75
2021/12/29 07:02:27;;;;;;;10.50;2.90;;;12.80;82.80;;;-142.21;100.00;112049.66;5112028;28;20532;-76
2021/12/29 07:04:54;;;;;;;5.93;2.50;;;12.80;83.00;;;-142.21;100.00;112049.66;5112285;28;20434;-76
2021/12/29 07:07:21;;;;;;;9.70;2.50;;;12.90;83.30;;;-142.21;100.00;112049.66;5111737;28;20805;-75
2021/12/29 07:09:50;;;;;;;10.57;3.00;;;12.90;83.20;;;-142.21;100.00;112049.66;5112110;28;20473;-76
2021/12/29 07:12:19;;;;;;;5.50;2.57;;;12.90;83.00;;;-142.21;100.00;112049.66;5111460;28;20592;-75
2021/12/29 07:14:46;;;;;;;9.53;2.50;;;12.80;83.00;;;-142.21;100.00;112049.66;5112594;28;20481;-76
2021/12/29 07:17:14;;;;;;;7.60;3.00;;;12.90;82.50;;;-142.21;100.00;112049.66;5112649;28;20473;-75
2021/12/29 07:19:41;;;;;;;7.17;2.50;;;12.80;83.30;;;-142.21;100.00;112049.66;5112032;28;20532;-75
2021/12/29 07:22:09;;;;;;;5.83;2.33;;;12.80;82.80;;;-142.21;100.00;112049.66;5112290;28;20484;-75
2021/12/29 07:24:36;;;;;;;5.57;2.20;;;12.80;82.70;;;-142.21;100.00;112049.66;5111749;28;20442;-75
2021/12/29 07:27:05;;;;;;;8.67;2.63;;;12.90;82.60;;;-142.21;100.00;112049.66;5112094;28;21024;-75
2021/12/29 07:29:33;;;;;;;5.53;2.23;;;12.80;82.60;;;-142.21;100.00;112049.66;5111500;28;20528;-75
2021/12/29 07:32:02;;;;;;;4.43;1.93;;;12.90;82.30;;;-142.21;100.00;112049.66;5111625;28;20991;-76
2021/12/29 07:34:30;;;;;;;6.97;2.40;;;12.90;82.50;;;-142.21;100.00;112049.66;5107451;28;20457;-76
2021/12/29 07:36:57;;;;;;;5.07;1.90;;;12.90;82.30;;;-142.21;100.00;112049.66;5112126;28;20549;-76
2021/12/29 07:39:25;;;;;;;5.40;2.40;;;12.90;82.00;;;-142.21;100.00;112049.66;5115833;28;20484;-76
2021/12/29 07:41:52;;;;;;;4.33;1.90;;;13.00;81.70;;;-142.21;100.00;112049.66;5108743;28;20480;-75
2021/12/29 07:44:22;;;;;;;3.67;1.90;;;13.00;81.30;;;-142.21;100.00;112049.66;5116322;28;20441;-75
2021/12/29 07:46:53;;;;;;;3.87;1.93;;;13.00;81.60;;;-142.21;100.00;112049.66;5115550;28;20536;-76
2021/12/29 07:49:22;;;;;;;3.33;1.53;;;13.10;81.40;;;-142.21;100.00;112049.66;5115779;28;20793;-76
2021/12/29 07:51:50;;;;;;;6.90;3.73;;;13.10;81.10;;;-142.21;100.00;112049.66;5115621;28;20481;-76
2021/12/29 07:54:18;;;;;;;5.23;1.93;;;13.20;80.90;;;-142.21;100.00;112049.66;5115745;28;20477;-76
2021/12/29 07:56:46;;;;;;;5.80;1.87;;;13.20;80.60;;;-142.21;100.00;112049.66;5116123;28;20526;-75
2021/12/29 07:59:14;;;;;;;4.83;1.83;;;13.30;80.90;;;-142.21;100.00;112049.66;5106948;28;20693;-75
2021/12/29 08:01:45;;;;;;;3.77;2.00;;;13.30;80.30;;;-142.21;100.00;112049.66;5107677;28;20528;-76
2021/12/29 08:04:15;;;;;;;3.57;1.87;;;13.30;80.40;;;-142.21;100.00;112049.66;5115017;28;20442;-75
2021/12/29 08:06:43;;;;;;;4.43;1.63;;;13.30;80.40;;;-142.21;100.00;112049.66;5114949;28;20516;-76
2021/12/29 08:09:10;;;;;;;4.50;1.70;;;13.40;80.10;;;-142.21;100.00;112049.66;5114842;28;20496;-75
2021/12/29 08:11:38;;;;;;;3.13;1.80;;;13.30;79.70;;;-142.21;100.00;112049.66;5107111;28;20461;-75
2021/12/29 08:14:06;;;;;;;5.17;1.60;;;13.40;79.80;;;-142.21;100.00;112049.66;5115036;28;20503;-76
2021/12/29 08:16:50;;;;;;;1.97;1.30;;;13.30;79.80;;;-142.21;100.00;112049.66;5062936;28;20602;-76
2021/12/29 08:19:17;;;;;;;2.53;1.70;;;13.30;79.70;;;-142.21;100.00;112049.66;5114483;28;20478;-76
2021/12/29 08:21:45;;;;;;;5.47;1.90;;;13.40;79.80;;;-142.21;100.00;112049.66;5115627;28;20516;-75
2021/12/29 08:24:12;;;;;;;7.07;2.17;;;13.40;79.80;;;-142.21;100.00;112049.66;5114958;28;20445;-75
2021/12/29 08:26:40;;;;;;;4.77;3.67;;;13.40;79.60;;;-142.21;100.00;112049.66;5114507;28;20988;-75
2021/12/29 08:29:07;;;;;;;4.17;2.93;;;13.40;79.60;;;-142.21;100.00;112049.66;5115024;28;20473;-76
2021/12/29 08:31:34;;;;;;;4.10;2.40;;;13.30;79.00;;;-142.21;100.00;112049.66;5114754;28;20863;-76
2021/12/29 08:34:03;;;;;;;3.87;2.40;;;13.30;78.90;;;-142.21;100.00;112049.66;5113474;28;20489;-77
2021/12/29 08:36:30;;;;;;;6.23;3.20;;;13.40;78.90;;;-142.21;100.00;112049.66;5114858;28;20560;-76
2021/12/29 08:38:58;;;;;;;4.47;2.27;;;13.40;79.40;;;-142.21;100.00;112049.66;5118086;27;20554;-75
2021/12/29 08:41:25;;;;;;;3.60;2.20;;;13.40;78.50;;;-142.21;100.00;112049.66;5128593;27;20451;-75
2021/12/29 08:43:52;;;;;;;4.07;1.60;;;13.40;78.30;;;-142.21;100.00;112049.66;5116774;27;20449;-74
2021/12/29 08:46:22;;;;;;;2.83;2.30;;;13.40;78.20;;;-142.21;100.00;112049.66;5114699;28;20499;-76
2021/12/29 08:48:50;;;;;;;3.13;1.70;;;13.40;78.00;;;-142.21;100.00;112049.66;5113357;28;20532;-76
2021/12/29 08:51:19;;;;;;;5.40;1.90;;;13.40;77.20;;;-142.21;100.00;112049.66;5114777;28;20478;-75
2021/12/29 08:53:48;;;;;;;5.37;2.90;;;13.40;77.70;;;-142.21;100.00;112049.66;5113343;28;20465;-75
2021/12/29 08:56:16;;;;;;;9.03;4.13;;;13.50;77.70;;;-142.21;100.00;112049.66;5114526;28;20485;-76
2021/12/29 08:58:44;;;;;;;7.40;3.40;;;13.50;77.50;;;-142.21;100.00;112049.66;5114401;28;20449;-75
2021/12/29 09:01:12;;;;;;;6.53;3.00;;;13.50;77.30;;;-142.21;100.00;112049.66;5114747;28;20929;-77
2021/12/29 09:03:43;;;;;;;7.13;2.63;;;13.70;77.20;;;-142.21;100.00;112049.66;5114128;28;20437;-76
2021/12/29 09:06:11;;;;;;;6.90;2.97;;;13.80;77.30;;;-142.21;100.00;112049.66;5114704;28;20495;-77
2021/12/29 09:08:40;;;;;;;4.57;2.33;;;13.90;77.20;;;-142.21;100.00;112049.66;5114299;28;20451;-76
2021/12/29 09:11:08;;;;;;;4.33;2.33;;;13.90;76.80;;;-142.21;100.00;112049.66;5112951;28;20538;-77
2021/12/29 09:13:36;;;;;;;5.33;2.50;;;14.00;76.60;;;-142.21;100.00;112049.66;5114270;28;21016;-77
2021/12/29 09:16:06;;;;;;;3.97;2.20;;;14.00;76.70;;;-142.21;100.00;112049.66;5114125;28;20572;-77
2021/12/29 09:18:36;;;;;;;6.17;2.17;;;14.00;76.70;;;-142.21;100.00;112049.66;5113651;28;20441;-76
2021/12/29 09:21:11;;;;;;;4.93;1.93;;;14.10;76.70;;;-142.21;100.00;112049.66;5103467;28;20498;-75
2021/12/29 09:23:41;;;;;;;4.80;2.20;;;14.00;76.60;;;-142.21;100.00;112049.66;5114169;28;20448;-76
2021/12/29 09:26:11;;;;;;;4.43;1.70;;;14.10;76.80;;;-142.21;100.00;112049.66;5111960;28;20880;-78
2021/12/29 09:28:39;;;;;;;4.57;2.03;;;14.10;76.70;;;-142.21;100.00;112049.66;5114237;28;20445;-76
2021/12/29 09:31:07;;;;;;;6.33;2.70;;;14.20;76.50;;;-142.21;100.00;112049.66;5113727;28;20450;-76
2021/12/29 09:33:35;;;;;;;5.00;2.13;;;14.30;76.00;;;-142.21;100.00;112049.66;5114457;28;20449;-77
2021/12/29 09:36:04;;;;;;;5.10;2.50;;;14.20;75.80;;;-142.21;100.00;112049.66;5129920;27;20480;-75
2021/12/29 09:38:35;;;;;;;4.53;2.70;;;14.10;76.60;;;-142.21;100.00;112049.66;5101152;28;20487;-75
2021/12/29 09:41:06;;;;;;;4.07;2.17;;;14.10;76.70;;;-142.21;100.00;112049.66;5108698;28;20465;-76
2021/12/29 09:43:34;;;;;;;3.97;2.27;;;14.10;76.50;;;-142.21;100.00;112049.66;5113000;28;20462;-75
2021/12/29 09:46:01;;;;;;;3.47;2.37;;;14.10;76.60;;;-142.21;100.00;112049.66;5104974;28;20520;-78
2021/12/29 09:48:28;;;;;;;5.93;2.50;;;14.10;76.50;;;-142.21;100.00;112049.66;5113250;28;20914;-78
2021/12/29 09:50:56;;;;;;;5.50;2.80;;;14.20;76.70;;;-142.21;100.00;112049.66;5093761;28;20481;-77
2021/12/29 09:53:23;;;;;;;5.20;2.53;;;14.20;75.80;;;-142.21;100.00;112049.66;5111214;28;20450;-75
2021/12/29 09:55:51;;;;;;;4.90;2.10;;;14.20;75.70;;;-142.21;100.00;112049.66;5113943;28;20484;-76
2021/12/29 09:58:20;;;;;;;5.70;2.40;;;14.20;75.40;;;-142.21;100.00;112049.66;5110905;28;20869;-75